sensor_id;sensor_type;location;lat;lon;timestamp;P1;durP1;ratioP1;P2;durP2;ratioP2
7813;SDS011;3952;48.364;16.022;2022-07-30T00:00:04;6.93;;;6.53;;
7813;SDS011;3952;48.364;16.022;2022-07-30T00:02:33;6.70;;;6.30;;
7813;SDS011;3952;48.364;16.022;2022-07-30T00:05:00;6.00;;;5.70;;
7813;SDS011;3952;48.364;16.022;2022-07-30T00:07:28;6.47;;;4.50;;
7813;SDS011;3952;48.364;16.022;2022-07-30T00:09:55;5.37;;;4.20;;
7813;SDS011;3952;48.364;16.022;2022-07-30T00:12:24;4.07;;;3.87;;
7813;SDS011;3952;48.364;16.022;2022-07-30T00:14:51;4.00;;;3.70;;
7813;SDS011;3952;48.364;16.022;2022-07-30T00:17:18;3.70;;;3.50;;
7813;SDS011;3952;48.364;16.022;2022-07-30T00:19:46;3.67;;;3.47;;
7813;SDS011;3952;48.364;16.022;2022-07-30T00:22:13;3.60;;;3.40;;
7813;SDS011;3952;48.364;16.022;2022-07-30T00:24:40;2.70;;;2.50;;
7813;SDS011;3952;48.364;16.022;2022-07-30T00:27:07;3.23;;;3.03;;
7813;SDS011;3952;48.364;16.022;2022-07-30T00:29:36;3.37;;;2.30;;
7813;SDS011;3952;48.364;16.022;2022-07-30T00:32:03;2.63;;;2.47;;
7813;SDS011;3952;48.364;16.022;2022-07-30T00:34:31;3.20;;;2.40;;
7813;SDS011;3952;48.364;16.022;2022-07-30T00:36:58;2.40;;;2.20;;
7813;SDS011;3952;48.364;16.022;2022-07-30T00:39:25;2.43;;;2.30;;
7813;SDS011;3952;48.364;16.022;2022-07-30T00:41:55;2.23;;;2.13;;
7813;SDS011;3952;48.364;16.022;2022-07-30T00:44:24;2.20;;;2.10;;
7813;SDS011;3952;48.364;16.022;2022-07-30T00:46:53;2.40;;;2.30;;
7813;SDS011;3952;48.364;16.022;2022-07-30T00:49:22;2.30;;;2.20;;
7813;SDS011;3952;48.364;16.022;2022-07-30T00:51:50;3.43;;;2.53;;
7813;SDS011;3952;48.364;16.022;2022-07-30T00:54:17;2.63;;;2.43;;
7813;SDS011;3952;48.364;16.022;2022-07-30T00:56:45;3.27;;;2.47;;
7813;SDS011;3952;48.364;16.022;2022-07-30T00:59:13;2.60;;;2.40;;
7813;SDS011;3952;48.364;16.022;2022-07-30T01:01:41;2.93;;;2.83;;
7813;SDS011;3952;48.364;16.022;2022-07-30T01:04:10;2.20;;;2.10;;
7813;SDS011;3952;48.364;16.022;2022-07-30T01:06:37;2.20;;;2.10;;
7813;SDS011;3952;48.364;16.022;2022-07-30T01:09:05;2.50;;;2.30;;
7813;SDS011;3952;48.364;16.022;2022-07-30T01:11:34;2.70;;;2.50;;
7813;SDS011;3952;48.364;16.022;2022-07-30T01:14:04;2.30;;;2.20;;
7813;SDS011;3952;48.364;16.022;2022-07-30T01:16:33;2.40;;;2.30;;
7813;SDS011;3952;48.364;16.022;2022-07-30T01:19:01;2.57;;;2.43;;
7813;SDS011;3952;48.364;16.022;2022-07-30T01:21:53;3.13;;;2.30;;
7813;SDS011;3952;48.364;16.022;2022-07-30T01:24:28;3.17;;;2.97;;
7813;SDS011;3952;48.364;16.022;2022-07-30T01:27:10;3.03;;;2.83;;
7813;SDS011;3952;48.364;16.022;2022-07-30T01:29:39;2.50;;;2.40;;
7813;SDS011;3952;48.364;16.022;2022-07-30T01:32:08;2.80;;;2.60;;
7813;SDS011;3952;48.364;16.022;2022-07-30T01:34:38;3.07;;;2.93;;
7813;SDS011;3952;48.364;16.022;2022-07-30T01:37:06;3.00;;;2.80;;
7813;SDS011;3952;48.364;16.022;2022-07-30T01:39:36;3.13;;;3.03;;
7813;SDS011;3952;48.364;16.022;2022-07-30T01:42:05;3.00;;;2.90;;
7813;SDS011;3952;48.364;16.022;2022-07-30T01:44:35;3.23;;;3.13;;
7813;SDS011;3952;48.364;16.022;2022-07-30T01:47:04;3.17;;;3.07;;
7813;SDS011;3952;48.364;16.022;2022-07-30T01:49:34;3.53;;;3.33;;
7813;SDS011;3952;48.364;16.022;2022-07-30T01:52:03;3.60;;;3.30;;
7813;SDS011;3952;48.364;16.022;2022-07-30T01:54:33;4.20;;;4.00;;
7813;SDS011;3952;48.364;16.022;2022-07-30T01:57:02;3.83;;;3.53;;
7813;SDS011;3952;48.364;16.022;2022-07-30T01:59:32;3.70;;;3.50;;
7813;SDS011;3952;48.364;16.022;2022-07-30T02:02:02;4.60;;;4.30;;
7813;SDS011;3952;48.364;16.022;2022-07-30T02:04:29;4.57;;;4.27;;
7813;SDS011;3952;48.364;16.022;2022-07-30T02:06:58;3.93;;;3.63;;
7813;SDS011;3952;48.364;16.022;2022-07-30T02:09:32;4.27;;;3.97;;
7813;SDS011;3952;48.364;16.022;2022-07-30T02:12:01;4.50;;;4.20;;
7813;SDS011;3952;48.364;16.022;2022-07-30T02:14:49;4.23;;;3.93;;
7813;SDS011;3952;48.364;16.022;2022-07-30T02:17:23;4.40;;;4.00;;
7813;SDS011;3952;48.364;16.022;2022-07-30T02:19:54;5.73;;;4.13;;
7813;SDS011;3952;48.364;16.022;2022-07-30T02:22:22;4.70;;;4.40;;
7813;SDS011;3952;48.364;16.022;2022-07-30T02:24:51;4.30;;;4.10;;
7813;SDS011;3952;48.364;16.022;2022-07-30T02:27:22;4.63;;;4.30;;
7813;SDS011;3952;48.364;16.022;2022-07-30T02:29:53;4.67;;;4.40;;
7813;SDS011;3952;48.364;16.022;2022-07-30T02:32:25;5.17;;;4.87;;
7813;SDS011;3952;48.364;16.022;2022-07-30T02:34:58;4.87;;;4.67;;
7813;SDS011;3952;48.364;16.022;2022-07-30T02:37:28;4.60;;;4.30;;
7813;SDS011;3952;48.364;16.022;2022-07-30T02:39:57;5.57;;;5.13;;
7813;SDS011;3952;48.364;16.022;2022-07-30T02:42:25;4.70;;;4.40;;
7813;SDS011;3952;48.364;16.022;2022-07-30T02:44:55;5.43;;;5.13;;
7813;SDS011;3952;48.364;16.022;2022-07-30T02:47:26;5.33;;;4.87;;
7813;SDS011;3952;48.364;16.022;2022-07-30T02:49:55;4.90;;;4.60;;
7813;SDS011;3952;48.364;16.022;2022-07-30T02:52:23;5.20;;;4.90;;
7813;SDS011;3952;48.364;16.022;2022-07-30T02:54:53;5.30;;;5.00;;
7813;SDS011;3952;48.364;16.022;2022-07-30T02:57:23;5.50;;;5.20;;
7813;SDS011;3952;48.364;16.022;2022-07-30T02:59:51;5.30;;;5.00;;
7813;SDS011;3952;48.364;16.022;2022-07-30T03:02:21;6.00;;;5.70;;
7813;SDS011;3952;48.364;16.022;2022-07-30T03:04:50;6.13;;;5.63;;
7813;SDS011;3952;48.364;16.022;2022-07-30T03:07:19;6.50;;;6.13;;
7813;SDS011;3952;48.364;16.022;2022-07-30T03:09:47;6.60;;;6.10;;
7813;SDS011;3952;48.364;16.022;2022-07-30T03:12:16;6.40;;;6.10;;
7813;SDS011;3952;48.364;16.022;2022-07-30T03:14:45;6.37;;;6.07;;
7813;SDS011;3952;48.364;16.022;2022-07-30T03:17:12;6.60;;;6.20;;
7813;SDS011;3952;48.364;16.022;2022-07-30T03:19:41;6.30;;;6.00;;
7813;SDS011;3952;48.364;16.022;2022-07-30T03:22:12;7.07;;;6.57;;
7813;SDS011;3952;48.364;16.022;2022-07-30T03:24:42;6.90;;;6.50;;
7813;SDS011;3952;48.364;16.022;2022-07-30T03:27:13;7.33;;;6.93;;
7813;SDS011;3952;48.364;16.022;2022-07-30T03:29:41;7.03;;;6.63;;
7813;SDS011;3952;48.364;16.022;2022-07-30T03:32:11;7.63;;;7.23;;
7813;SDS011;3952;48.364;16.022;2022-07-30T03:34:39;7.33;;;6.93;;
7813;SDS011;3952;48.364;16.022;2022-07-30T03:37:07;7.50;;;7.17;;
7813;SDS011;3952;48.364;16.022;2022-07-30T03:39:36;7.90;;;7.13;;
7813;SDS011;3952;48.364;16.022;2022-07-30T03:42:06;7.40;;;7.00;;
7813;SDS011;3952;48.364;16.022;2022-07-30T03:44:34;8.57;;;7.77;;
7813;SDS011;3952;48.364;16.022;2022-07-30T03:47:02;7.27;;;6.77;;
7813;SDS011;3952;48.364;16.022;2022-07-30T03:49:32;6.60;;;6.30;;
7813;SDS011;3952;48.364;16.022;2022-07-30T03:52:00;6.70;;;6.30;;
7813;SDS011;3952;48.364;16.022;2022-07-30T03:54:29;6.50;;;6.20;;
7813;SDS011;3952;48.364;16.022;2022-07-30T03:57:00;5.80;;;5.50;;
7813;SDS011;3952;48.364;16.022;2022-07-30T03:59:27;6.33;;;5.93;;
7813;SDS011;3952;48.364;16.022;2022-07-30T04:01:58;5.07;;;4.80;;
7813;SDS011;3952;48.364;16.022;2022-07-30T04:04:26;5.10;;;4.90;;
7813;SDS011;3952;48.364;16.022;2022-07-30T04:06:54;4.83;;;4.63;;
7813;SDS011;3952;48.364;16.022;2022-07-30T04:09:22;4.37;;;4.17;;
7813;SDS011;3952;48.364;16.022;2022-07-30T04:11:50;4.90;;;4.63;;
7813;SDS011;3952;48.364;16.022;2022-07-30T04:14:19;5.00;;;4.80;;
7813;SDS011;3952;48.364;16.022;2022-07-30T04:16:46;4.53;;;4.33;;
7813;SDS011;3952;48.364;16.022;2022-07-30T04:19:21;5.10;;;4.70;;
7813;SDS011;3952;48.364;16.022;2022-07-30T04:21:51;4.83;;;4.47;;
7813;SDS011;3952;48.364;16.022;2022-07-30T04:24:21;4.60;;;4.40;;
7813;SDS011;3952;48.364;16.022;2022-07-30T04:26:51;4.50;;;4.30;;
7813;SDS011;3952;48.364;16.022;2022-07-30T04:29:20;4.97;;;4.67;;
7813;SDS011;3952;48.364;16.022;2022-07-30T04:31:48;4.33;;;4.13;;
7813;SDS011;3952;48.364;16.022;2022-07-30T04:34:15;4.93;;;4.70;;
7813;SDS011;3952;48.364;16.022;2022-07-30T04:36:42;5.60;;;5.30;;
7813;SDS011;3952;48.364;16.022;2022-07-30T04:39:10;5.27;;;4.97;;
7813;SDS011;3952;48.364;16.022;2022-07-30T04:41:38;5.03;;;4.77;;
7813;SDS011;3952;48.364;16.022;2022-07-30T04:44:06;4.97;;;4.67;;
7813;SDS011;3952;48.364;16.022;2022-07-30T04:46:34;4.53;;;4.33;;
7813;SDS011;3952;48.364;16.022;2022-07-30T04:49:02;4.37;;;4.03;;
7813;SDS011;3952;48.364;16.022;2022-07-30T04:51:31;4.97;;;4.73;;
7813;SDS011;3952;48.364;16.022;2022-07-30T04:53:59;5.10;;;4.80;;
7813;SDS011;3952;48.364;16.022;2022-07-30T04:56:29;5.50;;;4.97;;
7813;SDS011;3952;48.364;16.022;2022-07-30T04:58:59;5.63;;;5.33;;
7813;SDS011;3952;48.364;16.022;2022-07-30T05:01:33;5.17;;;4.77;;
7813;SDS011;3952;48.364;16.022;2022-07-30T05:04:03;5.57;;;5.27;;
7813;SDS011;3952;48.364;16.022;2022-07-30T05:06:31;5.70;;;5.40;;
7813;SDS011;3952;48.364;16.022;2022-07-30T05:09:00;5.30;;;5.03;;
7813;SDS011;3952;48.364;16.022;2022-07-30T05:11:27;4.80;;;4.60;;
7813;SDS011;3952;48.364;16.022;2022-07-30T05:13:55;5.23;;;5.00;;
7813;SDS011;3952;48.364;16.022;2022-07-30T05:16:22;4.63;;;4.43;;
7813;SDS011;3952;48.364;16.022;2022-07-30T05:18:51;4.90;;;4.70;;
7813;SDS011;3952;48.364;16.022;2022-07-30T05:21:18;5.40;;;5.10;;
7813;SDS011;3952;48.364;16.022;2022-07-30T05:23:46;5.33;;;5.03;;
7813;SDS011;3952;48.364;16.022;2022-07-30T05:26:13;5.43;;;5.23;;
7813;SDS011;3952;48.364;16.022;2022-07-30T05:28:44;5.30;;;4.90;;
7813;SDS011;3952;48.364;16.022;2022-07-30T05:31:11;4.90;;;4.63;;
7813;SDS011;3952;48.364;16.022;2022-07-30T05:33:38;4.73;;;4.47;;
7813;SDS011;3952;48.364;16.022;2022-07-30T05:36:07;4.90;;;4.60;;
7813;SDS011;3952;48.364;16.022;2022-07-30T05:38:34;4.80;;;4.50;;
7813;SDS011;3952;48.364;16.022;2022-07-30T05:41:01;4.83;;;4.57;;
7813;SDS011;3952;48.364;16.022;2022-07-30T05:43:28;4.07;;;3.87;;
7813;SDS011;3952;48.364;16.022;2022-07-30T05:45:55;4.50;;;4.27;;
7813;SDS011;3952;48.364;16.022;2022-07-30T05:48:23;4.27;;;3.93;;
7813;SDS011;3952;48.364;16.022;2022-07-30T05:50:50;3.83;;;3.63;;
7813;SDS011;3952;48.364;16.022;2022-07-30T05:53:19;3.87;;;3.67;;
7813;SDS011;3952;48.364;16.022;2022-07-30T05:55:46;3.70;;;3.50;;
7813;SDS011;3952;48.364;16.022;2022-07-30T05:58:13;4.10;;;3.90;;
7813;SDS011;3952;48.364;16.022;2022-07-30T06:00:40;3.70;;;3.50;;
7813;SDS011;3952;48.364;16.022;2022-07-30T06:03:08;4.23;;;4.03;;
7813;SDS011;3952;48.364;16.022;2022-07-30T06:05:35;4.00;;;3.70;;
7813;SDS011;3952;48.364;16.022;2022-07-30T06:08:02;4.10;;;3.90;;
7813;SDS011;3952;48.364;16.022;2022-07-30T06:10:31;4.07;;;3.87;;
7813;SDS011;3952;48.364;16.022;2022-07-30T06:12:58;4.03;;;3.73;;
7813;SDS011;3952;48.364;16.022;2022-07-30T06:15:26;3.77;;;3.47;;
7813;SDS011;3952;48.364;16.022;2022-07-30T06:17:53;4.17;;;3.87;;
7813;SDS011;3952;48.364;16.022;2022-07-30T06:20:20;5.13;;;4.83;;
7813;SDS011;3952;48.364;16.022;2022-07-30T06:22:48;5.50;;;5.10;;
7813;SDS011;3952;48.364;16.022;2022-07-30T06:25:15;5.07;;;4.77;;
7813;SDS011;3952;48.364;16.022;2022-07-30T06:27:44;4.53;;;4.17;;
7813;SDS011;3952;48.364;16.022;2022-07-30T06:30:11;4.10;;;3.90;;
7813;SDS011;3952;48.364;16.022;2022-07-30T06:32:38;4.30;;;4.10;;
7813;SDS011;3952;48.364;16.022;2022-07-30T06:35:07;3.97;;;3.80;;
7813;SDS011;3952;48.364;16.022;2022-07-30T06:37:35;4.37;;;4.13;;
7813;SDS011;3952;48.364;16.022;2022-07-30T06:40:02;4.30;;;4.10;;
7813;SDS011;3952;48.364;16.022;2022-07-30T06:42:30;4.50;;;4.20;;
7813;SDS011;3952;48.364;16.022;2022-07-30T06:44:59;4.30;;;4.10;;
7813;SDS011;3952;48.364;16.022;2022-07-30T06:47:26;4.47;;;4.17;;
7813;SDS011;3952;48.364;16.022;2022-07-30T06:49:53;4.53;;;4.13;;
7813;SDS011;3952;48.364;16.022;2022-07-30T06:52:21;4.60;;;4.40;;
7813;SDS011;3952;48.364;16.022;2022-07-30T06:54:48;5.00;;;4.50;;
7813;SDS011;3952;48.364;16.022;2022-07-30T06:57:15;4.37;;;4.17;;
7813;SDS011;3952;48.364;16.022;2022-07-30T06:59:42;4.87;;;4.60;;
7813;SDS011;3952;48.364;16.022;2022-07-30T07:02:11;4.90;;;4.60;;
7813;SDS011;3952;48.364;16.022;2022-07-30T07:04:38;4.57;;;4.30;;
7813;SDS011;3952;48.364;16.022;2022-07-30T07:07:06;4.50;;;4.30;;
7813;SDS011;3952;48.364;16.022;2022-07-30T07:09:33;4.30;;;4.10;;
7813;SDS011;3952;48.364;16.022;2022-07-30T07:12:00;4.47;;;4.17;;
7813;SDS011;3952;48.364;16.022;2022-07-30T07:14:27;4.10;;;3.90;;
7813;SDS011;3952;48.364;16.022;2022-07-30T07:16:54;4.43;;;4.23;;
7813;SDS011;3952;48.364;16.022;2022-07-30T07:19:23;4.50;;;4.30;;
7813;SDS011;3952;48.364;16.022;2022-07-30T07:21:50;4.40;;;4.20;;
7813;SDS011;3952;48.364;16.022;2022-07-30T07:24:17;3.87;;;3.70;;
7813;SDS011;3952;48.364;16.022;2022-07-30T07:26:45;4.50;;;4.10;;
7813;SDS011;3952;48.364;16.022;2022-07-30T07:29:12;4.00;;;3.70;;
7813;SDS011;3952;48.364;16.022;2022-07-30T07:31:40;4.10;;;3.90;;
7813;SDS011;3952;48.364;16.022;2022-07-30T07:34:08;4.13;;;3.93;;
7813;SDS011;3952;48.364;16.022;2022-07-30T07:36:36;3.80;;;3.60;;
7813;SDS011;3952;48.364;16.022;2022-07-30T07:39:04;4.07;;;3.93;;
7813;SDS011;3952;48.364;16.022;2022-07-30T07:41:34;3.43;;;3.33;;
7813;SDS011;3952;48.364;16.022;2022-07-30T07:44:02;4.30;;;4.00;;
7813;SDS011;3952;48.364;16.022;2022-07-30T07:46:30;5.53;;;3.90;;
7813;SDS011;3952;48.364;16.022;2022-07-30T07:48:57;3.60;;;3.50;;
7813;SDS011;3952;48.364;16.022;2022-07-30T07:51:24;4.33;;;4.03;;
7813;SDS011;3952;48.364;16.022;2022-07-30T07:53:53;3.83;;;3.73;;
7813;SDS011;3952;48.364;16.022;2022-07-30T07:56:20;3.80;;;3.60;;
7813;SDS011;3952;48.364;16.022;2022-07-30T07:58:48;4.10;;;3.80;;
7813;SDS011;3952;48.364;16.022;2022-07-30T08:01:18;4.13;;;3.93;;
7813;SDS011;3952;48.364;16.022;2022-07-30T08:03:46;4.10;;;3.90;;
7813;SDS011;3952;48.364;16.022;2022-07-30T08:06:13;4.53;;;4.33;;
7813;SDS011;3952;48.364;16.022;2022-07-30T08:08:41;4.10;;;3.90;;
7813;SDS011;3952;48.364;16.022;2022-07-30T08:11:09;4.00;;;3.70;;
7813;SDS011;3952;48.364;16.022;2022-07-30T08:13:37;3.97;;;3.77;;
7813;SDS011;3952;48.364;16.022;2022-07-30T08:16:04;3.70;;;3.50;;
7813;SDS011;3952;48.364;16.022;2022-07-30T08:18:34;3.63;;;3.53;;
7813;SDS011;3952;48.364;16.022;2022-07-30T08:21:02;3.97;;;3.77;;
7813;SDS011;3952;48.364;16.022;2022-07-30T08:23:29;3.43;;;3.33;;
7813;SDS011;3952;48.364;16.022;2022-07-30T08:25:56;3.80;;;3.60;;
7813;SDS011;3952;48.364;16.022;2022-07-30T08:28:25;3.23;;;3.07;;
7813;SDS011;3952;48.364;16.022;2022-07-30T08:30:53;3.10;;;3.00;;
7813;SDS011;3952;48.364;16.022;2022-07-30T08:33:20;2.90;;;2.80;;
7813;SDS011;3952;48.364;16.022;2022-07-30T08:35:47;3.10;;;3.00;;
7813;SDS011;3952;48.364;16.022;2022-07-30T08:38:14;3.07;;;2.97;;
7813;SDS011;3952;48.364;16.022;2022-07-30T08:40:41;2.67;;;2.57;;
7813;SDS011;3952;48.364;16.022;2022-07-30T08:43:09;2.93;;;2.80;;
7813;SDS011;3952;48.364;16.022;2022-07-30T08:45:38;3.07;;;2.87;;
7813;SDS011;3952;48.364;16.022;2022-07-30T08:48:06;2.97;;;2.87;;
7813;SDS011;3952;48.364;16.022;2022-07-30T08:50:36;3.07;;;2.97;;
7813;SDS011;3952;48.364;16.022;2022-07-30T08:53:04;2.80;;;2.70;;
7813;SDS011;3952;48.364;16.022;2022-07-30T08:55:32;2.87;;;2.77;;
7813;SDS011;3952;48.364;16.022;2022-07-30T08:57:59;2.90;;;2.80;;
7813;SDS011;3952;48.364;16.022;2022-07-30T09:00:28;3.17;;;2.97;;
7813;SDS011;3952;48.364;16.022;2022-07-30T09:02:57;3.17;;;3.07;;
7813;SDS011;3952;48.364;16.022;2022-07-30T09:05:26;3.17;;;3.07;;
7813;SDS011;3952;48.364;16.022;2022-07-30T09:07:53;3.13;;;3.03;;
7813;SDS011;3952;48.364;16.022;2022-07-30T09:10:20;3.63;;;3.53;;
7813;SDS011;3952;48.364;16.022;2022-07-30T09:12:49;3.37;;;3.17;;
7813;SDS011;3952;48.364;16.022;2022-07-30T09:15:17;3.47;;;3.37;;
7813;SDS011;3952;48.364;16.022;2022-07-30T09:17:47;3.83;;;3.63;;
7813;SDS011;3952;48.364;16.022;2022-07-30T09:20:17;3.87;;;3.67;;
7813;SDS011;3952;48.364;16.022;2022-07-30T09:22:46;3.70;;;3.50;;
7813;SDS011;3952;48.364;16.022;2022-07-30T09:25:15;4.23;;;4.07;;
7813;SDS011;3952;48.364;16.022;2022-07-30T09:28:00;4.00;;;3.90;;
7813;SDS011;3952;48.364;16.022;2022-07-30T09:30:41;4.37;;;4.17;;
7813;SDS011;3952;48.364;16.022;2022-07-30T09:33:11;4.50;;;4.30;;
7813;SDS011;3952;48.364;16.022;2022-07-30T09:35:40;5.07;;;4.87;;
7813;SDS011;3952;48.364;16.022;2022-07-30T09:38:08;5.27;;;4.97;;
7813;SDS011;3952;48.364;16.022;2022-07-30T09:40:36;5.37;;;5.07;;
7813;SDS011;3952;48.364;16.022;2022-07-30T09:43:04;5.47;;;5.17;;
7813;SDS011;3952;48.364;16.022;2022-07-30T09:45:32;5.63;;;5.33;;
7813;SDS011;3952;48.364;16.022;2022-07-30T09:48:00;5.70;;;5.30;;
7813;SDS011;3952;48.364;16.022;2022-07-30T09:50:28;5.77;;;5.37;;
7813;SDS011;3952;48.364;16.022;2022-07-30T09:53:05;5.87;;;5.57;;
7813;SDS011;3952;48.364;16.022;2022-07-30T09:55:34;6.03;;;5.63;;
7813;SDS011;3952;48.364;16.022;2022-07-30T09:58:03;6.40;;;5.93;;
7813;SDS011;3952;48.364;16.022;2022-07-30T10:00:32;5.70;;;5.50;;
7813;SDS011;3952;48.364;16.022;2022-07-30T10:03:00;7.60;;;7.20;;
7813;SDS011;3952;48.364;16.022;2022-07-30T10:05:47;7.07;;;6.60;;
7813;SDS011;3952;48.364;16.022;2022-07-30T10:08:18;8.00;;;7.30;;
7813;SDS011;3952;48.364;16.022;2022-07-30T10:10:45;6.93;;;6.63;;
7813;SDS011;3952;48.364;16.022;2022-07-30T10:13:14;7.03;;;6.73;;
7813;SDS011;3952;48.364;16.022;2022-07-30T10:15:44;7.33;;;7.03;;
7813;SDS011;3952;48.364;16.022;2022-07-30T10:18:12;8.60;;;7.90;;
7813;SDS011;3952;48.364;16.022;2022-07-30T10:20:41;6.93;;;6.57;;
7813;SDS011;3952;48.364;16.022;2022-07-30T10:23:09;6.57;;;6.27;;
7813;SDS011;3952;48.364;16.022;2022-07-30T10:25:39;6.77;;;6.40;;
7813;SDS011;3952;48.364;16.022;2022-07-30T10:28:07;7.20;;;6.80;;
7813;SDS011;3952;48.364;16.022;2022-07-30T10:30:34;6.97;;;6.67;;
7813;SDS011;3952;48.364;16.022;2022-07-30T10:33:02;6.37;;;5.93;;
7813;SDS011;3952;48.364;16.022;2022-07-30T10:35:32;6.13;;;5.83;;
7813;SDS011;3952;48.364;16.022;2022-07-30T10:37:59;5.33;;;5.13;;
7813;SDS011;3952;48.364;16.022;2022-07-30T10:40:29;6.13;;;5.77;;
7813;SDS011;3952;48.364;16.022;2022-07-30T10:43:13;5.80;;;5.50;;
7813;SDS011;3952;48.364;16.022;2022-07-30T10:45:52;5.33;;;5.13;;
7813;SDS011;3952;48.364;16.022;2022-07-30T10:48:24;5.53;;;5.27;;
7813;SDS011;3952;48.364;16.022;2022-07-30T10:50:53;5.30;;;4.90;;
7813;SDS011;3952;48.364;16.022;2022-07-30T10:53:31;4.50;;;4.20;;
7813;SDS011;3952;48.364;16.022;2022-07-30T10:56:13;4.00;;;3.77;;
7813;SDS011;3952;48.364;16.022;2022-07-30T10:59:03;4.00;;;3.83;;
7813;SDS011;3952;48.364;16.022;2022-07-30T11:04:32;5.33;;;5.13;;
7813;SDS011;3952;48.364;16.022;2022-07-30T11:09:54;5.50;;;5.27;;
7813;SDS011;3952;48.364;16.022;2022-07-30T11:15:20;5.10;;;4.90;;
7813;SDS011;3952;48.364;16.022;2022-07-30T11:17:58;4.93;;;4.72;;
7813;SDS011;3952;48.364;16.022;2022-07-30T11:20:27;5.55;;;5.25;;
7813;SDS011;3952;48.364;16.022;2022-07-30T11:23:02;5.18;;;4.88;;
7813;SDS011;3952;48.364;16.022;2022-07-30T11:25:38;5.55;;;5.20;;
7813;SDS011;3952;48.364;16.022;2022-07-30T11:28:07;5.47;;;5.17;;
7813;SDS011;3952;48.364;16.022;2022-07-30T11:31:01;5.13;;;4.82;;
7813;SDS011;3952;48.364;16.022;2022-07-30T11:33:28;4.80;;;4.60;;
7813;SDS011;3952;48.364;16.022;2022-07-30T11:36:09;4.75;;;4.53;;
7813;SDS011;3952;48.364;16.022;2022-07-30T11:38:50;4.05;;;3.83;;
7813;SDS011;3952;48.364;16.022;2022-07-30T11:41:21;3.85;;;3.65;;
7813;SDS011;3952;48.364;16.022;2022-07-30T11:43:56;3.70;;;3.45;;
7813;SDS011;3952;48.364;16.022;2022-07-30T11:46:55;3.97;;;3.78;;
7813;SDS011;3952;48.364;16.022;2022-07-30T11:49:22;3.55;;;3.28;;
7813;SDS011;3952;48.364;16.022;2022-07-30T11:51:51;3.60;;;3.47;;
7813;SDS011;3952;48.364;16.022;2022-07-30T11:54:18;3.95;;;3.75;;
7813;SDS011;3952;48.364;16.022;2022-07-30T11:56:49;3.65;;;3.55;;
7813;SDS011;3952;48.364;16.022;2022-07-30T11:59:17;4.68;;;4.35;;
7813;SDS011;3952;48.364;16.022;2022-07-30T12:01:48;4.22;;;4.03;;
7813;SDS011;3952;48.364;16.022;2022-07-30T12:04:18;4.95;;;4.40;;
7813;SDS011;3952;48.364;16.022;2022-07-30T12:06:46;5.22;;;4.38;;
7813;SDS011;3952;48.364;16.022;2022-07-30T12:09:20;4.70;;;4.45;;
7813;SDS011;3952;48.364;16.022;2022-07-30T12:11:49;5.63;;;4.30;;
7813;SDS011;3952;48.364;16.022;2022-07-30T12:14:16;4.78;;;4.57;;
7813;SDS011;3952;48.364;16.022;2022-07-30T12:16:47;4.88;;;4.47;;
7813;SDS011;3952;48.364;16.022;2022-07-30T12:19:17;3.95;;;3.85;;
7813;SDS011;3952;48.364;16.022;2022-07-30T12:21:45;4.85;;;4.60;;
7813;SDS011;3952;48.364;16.022;2022-07-30T12:24:12;4.45;;;4.28;;
7813;SDS011;3952;48.364;16.022;2022-07-30T12:26:39;4.28;;;4.07;;
7813;SDS011;3952;48.364;16.022;2022-07-30T12:29:07;4.28;;;4.10;;
7813;SDS011;3952;48.364;16.022;2022-07-30T12:31:37;4.60;;;4.30;;
7813;SDS011;3952;48.364;16.022;2022-07-30T12:34:18;5.10;;;4.35;;
7813;SDS011;3952;48.364;16.022;2022-07-30T12:36:47;4.32;;;4.15;;
7813;SDS011;3952;48.364;16.022;2022-07-30T12:39:17;4.22;;;4.05;;
7813;SDS011;3952;48.364;16.022;2022-07-30T12:41:46;4.55;;;4.35;;
7813;SDS011;3952;48.364;16.022;2022-07-30T12:44:37;4.43;;;4.22;;
7813;SDS011;3952;48.364;16.022;2022-07-30T12:47:17;4.90;;;4.43;;
7813;SDS011;3952;48.364;16.022;2022-07-30T12:49:47;4.57;;;4.30;;
7813;SDS011;3952;48.364;16.022;2022-07-30T12:52:21;4.53;;;4.30;;
7813;SDS011;3952;48.364;16.022;2022-07-30T12:55:00;4.32;;;4.10;;
7813;SDS011;3952;48.364;16.022;2022-07-30T13:00:22;5.13;;;4.70;;
7813;SDS011;3952;48.364;16.022;2022-07-30T13:02:51;4.93;;;4.50;;
7813;SDS011;3952;48.364;16.022;2022-07-30T13:05:20;4.82;;;4.57;;
7813;SDS011;3952;48.364;16.022;2022-07-30T13:08:07;5.00;;;4.70;;
7813;SDS011;3952;48.364;16.022;2022-07-30T13:10:34;4.80;;;4.60;;
7813;SDS011;3952;48.364;16.022;2022-07-30T13:13:01;4.85;;;4.65;;
7813;SDS011;3952;48.364;16.022;2022-07-30T13:15:28;4.63;;;4.43;;
7813;SDS011;3952;48.364;16.022;2022-07-30T13:17:55;4.30;;;4.10;;
7813;SDS011;3952;48.364;16.022;2022-07-30T13:20:24;3.28;;;3.17;;
7813;SDS011;3952;48.364;16.022;2022-07-30T13:22:51;3.38;;;3.28;;
7813;SDS011;3952;48.364;16.022;2022-07-30T13:25:18;2.97;;;2.88;;
7813;SDS011;3952;48.364;16.022;2022-07-30T13:27:46;2.65;;;2.55;;
7813;SDS011;3952;48.364;16.022;2022-07-30T13:30:13;2.33;;;2.22;;
7813;SDS011;3952;48.364;16.022;2022-07-30T13:32:40;2.20;;;2.10;;
7813;SDS011;3952;48.364;16.022;2022-07-30T13:35:08;2.80;;;2.10;;
7813;SDS011;3952;48.364;16.022;2022-07-30T13:37:36;2.15;;;2.15;;
7813;SDS011;3952;48.364;16.022;2022-07-30T13:40:04;2.40;;;2.30;;
7813;SDS011;3952;48.364;16.022;2022-07-30T13:42:32;2.85;;;2.67;;
7813;SDS011;3952;48.364;16.022;2022-07-30T13:44:59;3.42;;;2.60;;
7813;SDS011;3952;48.364;16.022;2022-07-30T13:47:27;3.08;;;2.97;;
7813;SDS011;3952;48.364;16.022;2022-07-30T13:49:54;3.10;;;2.90;;
7813;SDS011;3952;48.364;16.022;2022-07-30T13:52:21;3.92;;;3.67;;
7813;SDS011;3952;48.364;16.022;2022-07-30T13:54:50;4.20;;;4.00;;
7813;SDS011;3952;48.364;16.022;2022-07-30T13:57:18;3.50;;;3.20;;
7813;SDS011;3952;48.364;16.022;2022-07-30T13:59:45;3.33;;;3.10;;
7813;SDS011;3952;48.364;16.022;2022-07-30T14:02:12;2.97;;;2.88;;
7813;SDS011;3952;48.364;16.022;2022-07-30T14:04:40;2.83;;;2.72;;
7813;SDS011;3952;48.364;16.022;2022-07-30T14:07:07;2.80;;;2.70;;
7813;SDS011;3952;48.364;16.022;2022-07-30T14:09:34;2.17;;;2.15;;
7813;SDS011;3952;48.364;16.022;2022-07-30T14:12:03;2.38;;;2.28;;
7813;SDS011;3952;48.364;16.022;2022-07-30T14:14:30;2.10;;;2.00;;
7813;SDS011;3952;48.364;16.022;2022-07-30T14:16:57;2.30;;;2.20;;
7813;SDS011;3952;48.364;16.022;2022-07-30T14:19:25;2.33;;;2.28;;
7813;SDS011;3952;48.364;16.022;2022-07-30T14:21:52;2.10;;;2.10;;
7813;SDS011;3952;48.364;16.022;2022-07-30T14:24:20;2.20;;;2.10;;
7813;SDS011;3952;48.364;16.022;2022-07-30T14:26:48;1.77;;;1.77;;
7813;SDS011;3952;48.364;16.022;2022-07-30T14:29:18;2.15;;;2.05;;
7813;SDS011;3952;48.364;16.022;2022-07-30T14:31:45;2.10;;;2.00;;
7813;SDS011;3952;48.364;16.022;2022-07-30T14:34:13;2.38;;;2.22;;
7813;SDS011;3952;48.364;16.022;2022-07-30T14:36:41;2.30;;;2.20;;
7813;SDS011;3952;48.364;16.022;2022-07-30T14:39:08;2.28;;;2.28;;
7813;SDS011;3952;48.364;16.022;2022-07-30T14:41:36;2.50;;;2.40;;
7813;SDS011;3952;48.364;16.022;2022-07-30T14:44:04;2.33;;;2.22;;
7813;SDS011;3952;48.364;16.022;2022-07-30T14:46:37;2.55;;;2.45;;
7813;SDS011;3952;48.364;16.022;2022-07-30T14:49:05;2.53;;;2.42;;
7813;SDS011;3952;48.364;16.022;2022-07-30T14:51:33;2.47;;;2.38;;
7813;SDS011;3952;48.364;16.022;2022-07-30T14:54:01;2.47;;;2.28;;
7813;SDS011;3952;48.364;16.022;2022-07-30T14:56:28;3.13;;;2.70;;
7813;SDS011;3952;48.364;16.022;2022-07-30T14:58:55;3.33;;;3.22;;
7813;SDS011;3952;48.364;16.022;2022-07-30T15:01:23;3.50;;;3.40;;
7813;SDS011;3952;48.364;16.022;2022-07-30T15:03:51;3.60;;;3.40;;
7813;SDS011;3952;48.364;16.022;2022-07-30T15:06:19;3.60;;;3.33;;
7813;SDS011;3952;48.364;16.022;2022-07-30T15:08:46;3.50;;;3.40;;
7813;SDS011;3952;48.364;16.022;2022-07-30T15:11:13;3.50;;;3.30;;
7813;SDS011;3952;48.364;16.022;2022-07-30T15:13:40;3.30;;;3.00;;
7813;SDS011;3952;48.364;16.022;2022-07-30T15:16:07;3.95;;;3.65;;
7813;SDS011;3952;48.364;16.022;2022-07-30T15:18:35;3.28;;;3.17;;
7813;SDS011;3952;48.364;16.022;2022-07-30T15:21:03;3.50;;;3.20;;
7813;SDS011;3952;48.364;16.022;2022-07-30T15:23:30;3.30;;;3.20;;